Time;durP1;ratioP1;P1;durP2;ratioP2;P2;SDS_P1;SDS_P2;PMS_P1;PMS_P2;Temp;Humidity;BMP_temperature;BMP_pressure;BME280_temperature;BME280_humidity;BME280_pressure;Samples;Min_cycle;Max_cycle;Signal;HPM_P1;HPM_P2
2022/06/22 00:00:22;;;;;;;4.75;3.75;;;28.80;45.50;;;;;;5063810;28;44849;-92
2022/06/22 00:02:54;;;;;;;5.25;4.10;;;28.70;45.40;;;;;;5067699;28;45354;-94
2022/06/22 00:05:23;;;;;;;4.13;3.72;;;28.70;45.20;;;;;;5080923;28;45467;-91
2022/06/22 00:07:54;;;;;;;4.30;3.90;;;28.70;45.30;;;;;;5045263;28;44673;-93
2022/06/22 00:10:23;;;;;;;4.40;3.72;;;28.70;45.20;;;;;;5065377;28;44721;-93
2022/06/22 00:13:29;;;;;;;5.13;3.95;;;28.70;45.10;;;;;;5066565;28;44992;-93
2022/06/22 00:18:42;;;;;;;4.45;4.05;;;28.70;44.90;;;;;;5050133;28;45013;-93
2022/06/22 00:21:19;;;;;;;4.72;4.05;;;28.70;44.90;;;;;;5063974;28;44869;-93
2022/06/22 00:23:49;;;;;;;4.50;3.85;;;28.70;44.90;;;;;;5061857;28;45420;-93
2022/06/22 00:26:36;;;;;;;4.32;3.65;;;28.70;44.80;;;;;;5064366;28;45398;-93
2022/06/22 00:29:24;;;;;;;5.32;3.90;;;28.70;44.90;;;;;;5067575;28;44581;-92
2022/06/22 00:32:14;;;;;;;4.93;3.90;;;28.60;44.80;;;;;;5066927;28;44721;-91
2022/06/22 00:34:42;;;;;;;11.75;4.20;;;28.60;44.60;;;;;;5065296;28;44923;-92
2022/06/22 00:37:15;;;;;;;5.47;3.83;;;28.60;44.60;;;;;;5066431;28;45757;-91
2022/06/22 00:39:50;;;;;;;4.43;3.83;;;28.60;44.80;;;;;;5051352;28;45282;-94
2022/06/22 00:42:33;;;;;;;4.38;3.97;;;28.60;44.60;;;;;;5067254;28;44626;-92
2022/06/22 00:45:06;;;;;;;4.88;4.38;;;28.60;44.80;;;;;;5064500;28;44878;-93
2022/06/22 00:47:35;;;;;;;6.57;4.68;;;28.60;44.70;;;;;;5063046;28;45656;-92
2022/06/22 00:50:10;;;;;;;4.45;4.05;;;28.60;44.70;;;;;;5065788;28;44636;-92
2022/06/22 00:52:49;;;;;;;4.10;3.80;;;28.60;44.70;;;;;;5048801;28;44824;-91
2022/06/22 00:55:26;;;;;;;4.57;3.58;;;28.50;44.70;;;;;;5066957;28;44858;-92
2022/06/22 00:58:06;;;;;;;5.35;3.70;;;28.50;44.70;;;;;;5067776;28;45957;-92
2022/06/22 01:00:37;;;;;;;4.72;4.10;;;28.50;44.60;;;;;;5066770;28;44656;-92
2022/06/22 01:03:30;;;;;;;4.10;3.72;;;28.50;44.80;;;;;;5065686;28;44776;-92
2022/06/22 01:06:04;;;;;;;5.50;4.13;;;28.50;44.50;;;;;;5042016;28;45570;-92
2022/06/22 01:08:40;;;;;;;4.05;3.70;;;28.50;44.60;;;;;;5068519;28;45556;-93
2022/06/22 01:12:16;;;;;;;4.10;3.70;;;28.50;44.60;;;;;;5052282;28;44726;-93
2022/06/22 01:14:04;;;;;;;4.60;3.90;;;28.50;44.70;;;;;;5066667;28;44730;-92
2022/06/22 01:16:36;;;;;;;4.85;4.07;;;28.40;44.60;;;;;;5050236;28;44958;-93
2022/06/22 01:19:10;;;;;;;4.47;4.03;;;28.40;44.70;;;;;;5047190;28;47673;-92
2022/06/22 01:21:41;;;;;;;5.07;4.28;;;28.40;44.60;;;;;;5042388;28;45299;-92
2022/06/22 01:24:28;;;;;;;5.18;3.92;;;28.40;44.60;;;;;;5047290;28;45323;-93
2022/06/22 01:27:21;;;;;;;4.28;3.90;;;28.40;44.70;;;;;;5063764;28;44892;-93
2022/06/22 01:29:56;;;;;;;3.80;3.45;;;28.40;44.60;;;;;;5062958;28;47229;-93
2022/06/22 01:32:24;;;;;;;6.00;4.70;;;28.40;44.50;;;;;;5064949;28;45187;-93
2022/06/22 01:34:52;;;;;;;5.10;4.18;;;28.40;44.50;;;;;;5064722;28;44705;-93
2022/06/22 01:37:22;;;;;;;4.97;4.05;;;28.40;44.60;;;;;;5065185;28;45298;-93
2022/06/22 01:40:08;;;;;;;4.20;3.90;;;28.40;44.40;;;;;;5067266;28;45486;-93
2022/06/22 01:42:41;;;;;;;4.43;4.03;;;28.30;44.30;;;;;;5064509;28;44781;-93
2022/06/22 01:45:27;;;;;;;4.30;3.95;;;28.30;44.40;;;;;;5046887;28;44757;-95
2022/06/22 01:47:57;;;;;;;4.60;3.72;;;28.30;44.40;;;;;;5064948;28;44826;-92
2022/06/22 01:56:31;;;;;;;4.82;3.90;;;28.30;44.50;;;;;;5061998;28;44845;-93
2022/06/22 01:59:05;;;;;;;4.10;3.72;;;28.30;44.30;;;;;;5063373;28;45278;-90
2022/06/22 02:01:35;;;;;;;4.28;3.58;;;28.20;44.30;;;;;;5065029;28;45868;-92
2022/06/22 02:04:23;;;;;;;4.28;3.90;;;28.30;44.50;;;;;;5065125;28;44616;-93
2022/06/22 02:09:48;;;;;;;4.63;4.00;;;28.20;44.30;;;;;;5058731;28;45439;-94
2022/06/22 02:12:26;;;;;;;4.30;3.90;;;28.20;44.40;;;;;;5055524;28;46911;-93
2022/06/22 02:14:59;;;;;;;4.47;3.70;;;28.20;44.40;;;;;;5060812;28;44647;-93
2022/06/22 02:17:27;;;;;;;6.60;4.32;;;28.20;44.50;;;;;;5054077;28;44692;-93
2022/06/22 02:20:31;;;;;;;4.57;3.78;;;28.20;44.40;;;;;;5041407;28;44968;-93
2022/06/22 02:23:05;;;;;;;3.63;3.33;;;28.20;44.40;;;;;;5055931;28;45199;-93
2022/06/22 02:25:39;;;;;;;5.75;3.90;;;28.20;44.50;;;;;;5057775;28;44601;-93
2022/06/22 02:28:20;;;;;;;4.45;4.03;;;28.10;44.40;;;;;;5058660;28;44642;-93
2022/06/22 02:30:51;;;;;;;5.85;3.90;;;28.10;44.40;;;;;;5027844;28;45224;-93
2022/06/22 02:36:03;;;;;;;4.40;3.70;;;28.10;44.20;;;;;;5040830;28;45222;-93
2022/06/22 02:38:33;;;;;;;3.78;3.38;;;28.10;44.20;;;;;;5037733;28;44779;-94
2022/06/22 02:46:33;;;;;;;3.83;3.53;;;28.10;44.30;;;;;;5041188;28;45285;-92
2022/06/22 02:49:02;;;;;;;4.15;3.75;;;28.10;44.40;;;;;;5038814;28;44704;-92
2022/06/22 02:51:32;;;;;;;4.30;3.85;;;28.00;44.30;;;;;;5041289;28;44832;-95
2022/06/22 02:54:00;;;;;;;4.00;3.70;;;28.00;44.40;;;;;;5043397;28;45488;-94
2022/06/22 02:56:34;;;;;;;4.30;3.90;;;28.00;44.10;;;;;;5043848;28;44706;-94
2022/06/22 02:59:02;;;;;;;3.78;3.47;;;28.00;44.30;;;;;;5036346;28;44733;-93
2022/06/22 03:01:32;;;;;;;3.60;3.30;;;28.00;44.20;;;;;;5041401;28;45433;-94
2022/06/22 03:04:07;;;;;;;4.13;3.72;;;27.90;44.20;;;;;;5038913;28;45507;-94
2022/06/22 03:06:44;;;;;;;4.20;3.80;;;27.90;44.20;;;;;;5031255;28;44671;-94
2022/06/22 03:09:12;;;;;;;4.20;3.80;;;27.90;44.30;;;;;;5043229;28;44688;-94
2022/06/22 03:11:42;;;;;;;4.22;3.83;;;27.90;44.30;;;;;;5045297;28;44825;-94
2022/06/22 03:14:25;;;;;;;4.45;3.65;;;27.90;44.40;;;;;;5043831;28;45703;-92
2022/06/22 03:16:58;;;;;;;4.22;3.90;;;27.90;44.30;;;;;;5045193;28;44617;-93
2022/06/22 03:19:28;;;;;;;4.00;3.63;;;27.90;44.30;;;;;;5022777;28;44797;-92
2022/06/22 03:21:56;;;;;;;4.18;3.55;;;27.90;44.30;;;;;;5021365;28;45134;-93
2022/06/22 03:24:36;;;;;;;4.22;3.85;;;27.90;44.10;;;;;;5023382;28;45895;-92
2022/06/22 03:27:05;;;;;;;3.97;3.67;;;27.90;44.20;;;;;;5020704;28;45216;-93
2022/06/22 03:29:34;;;;;;;4.25;3.83;;;27.80;44.20;;;;;;5026538;28;44783;-92
2022/06/22 03:32:08;;;;;;;4.05;3.58;;;27.90;44.30;;;;;;5006831;28;44836;-93
2022/06/22 03:34:37;;;;;;;4.07;3.70;;;27.80;44.10;;;;;;5030518;28;45841;-91
2022/06/22 03:37:07;;;;;;;4.45;3.42;;;27.80;44.00;;;;;;5062605;28;44608;-92
2022/06/22 03:39:36;;;;;;;3.88;3.47;;;27.80;44.30;;;;;;5059957;28;44681;-93
2022/06/22 03:42:10;;;;;;;3.67;3.38;;;27.80;44.20;;;;;;5060530;28;45148;-92
2022/06/22 03:44:41;;;;;;;5.20;4.10;;;27.80;44.10;;;;;;5045122;28;45582;-92
2022/06/22 03:47:11;;;;;;;3.47;3.17;;;27.80;44.40;;;;;;5063231;28;45325;-93
2022/06/22 03:49:42;;;;;;;4.38;3.72;;;27.80;44.30;;;;;;5057941;28;45182;-92
2022/06/22 03:52:12;;;;;;;4.13;3.72;;;27.80;44.30;;;;;;5052956;28;45286;-92
2022/06/22 03:54:40;;;;;;;4.50;3.90;;;27.80;44.30;;;;;;5050657;28;45749;-92
2022/06/22 03:57:08;;;;;;;3.75;3.45;;;27.80;44.20;;;;;;5051040;28;45293;-91
2022/06/22 03:59:36;;;;;;;3.80;3.40;;;27.70;44.00;;;;;;5049599;28;45548;-91
2022/06/22 04:02:03;;;;;;;4.60;3.78;;;27.70;44.00;;;;;;5052376;28;45455;-91
2022/06/22 04:04:31;;;;;;;3.92;3.55;;;27.70;44.20;;;;;;5051842;28;45535;-91
2022/06/22 04:06:58;;;;;;;4.20;3.80;;;27.70;44.10;;;;;;5051502;28;45361;-91
2022/06/22 04:09:26;;;;;;;3.50;3.20;;;27.70;44.20;;;;;;5051659;28;45393;-91
2022/06/22 04:11:56;;;;;;;4.05;3.55;;;27.70;44.30;;;;;;5051502;28;45196;-90
2022/06/22 04:14:26;;;;;;;3.92;3.60;;;27.60;44.10;;;;;;5051222;28;46458;-91
2022/06/22 04:16:54;;;;;;;3.70;3.40;;;27.60;44.60;;;;;;5051137;28;45214;-91
2022/06/22 04:19:24;;;;;;;3.80;3.50;;;27.60;44.30;;;;;;5033584;28;45474;-92
2022/06/22 04:22:02;;;;;;;3.63;3.33;;;27.60;44.50;;;;;;5030956;28;45442;-91
2022/06/22 04:24:30;;;;;;;3.78;3.47;;;27.60;44.40;;;;;;5027415;28;45548;-92
2022/06/22 04:27:01;;;;;;;4.20;3.40;;;27.60;44.70;;;;;;5030390;28;45326;-92
2022/06/22 04:29:30;;;;;;;3.78;3.45;;;27.60;44.60;;;;;;5030362;28;45197;-93
2022/06/22 04:31:59;;;;;;;4.28;3.85;;;27.60;44.70;;;;;;5029946;28;45318;-93
2022/06/22 04:34:36;;;;;;;3.58;3.28;;;27.60;44.80;;;;;;5046902;28;45743;-92
2022/06/22 04:37:08;;;;;;;5.05;3.60;;;27.50;44.70;;;;;;5049289;28;45230;-92
2022/06/22 04:39:36;;;;;;;3.55;3.25;;;27.50;44.60;;;;;;5050469;28;45382;-92
2022/06/22 04:42:04;;;;;;;3.40;3.10;;;27.50;44.90;;;;;;5051225;28;45676;-92
2022/06/22 04:44:32;;;;;;;4.55;3.42;;;27.50;44.90;;;;;;5050300;28;45384;-92
2022/06/22 04:47:02;;;;;;;3.30;3.05;;;27.50;44.80;;;;;;5050886;28;45413;-92
2022/06/22 04:49:30;;;;;;;4.18;3.33;;;27.50;44.80;;;;;;5056727;28;45132;-93
2022/06/22 04:52:00;;;;;;;3.97;3.58;;;27.50;45.10;;;;;;5048517;28;45372;-93
2022/06/22 04:54:31;;;;;;;3.45;3.15;;;27.50;45.00;;;;;;5051144;28;47256;-93
2022/06/22 04:56:59;;;;;;;4.53;3.03;;;27.50;45.10;;;;;;5049375;28;45344;-92
2022/06/22 04:59:26;;;;;;;3.30;3.00;;;27.50;45.80;;;;;;5051799;28;44747;-89
2022/06/22 05:01:55;;;;;;;3.63;3.17;;;27.50;45.20;;;;;;5054288;28;45175;-93
2022/06/22 05:04:24;;;;;;;3.67;3.17;;;27.50;45.50;;;;;;5053558;28;45691;-93
2022/06/22 05:06:56;;;;;;;7.18;3.47;;;27.50;45.60;;;;;;5053275;28;44794;-92
2022/06/22 05:09:26;;;;;;;5.07;3.42;;;27.50;45.60;;;;;;5054979;28;45294;-91
2022/06/22 05:11:55;;;;;;;4.32;3.33;;;27.40;45.50;;;;;;5038394;28;44979;-92
2022/06/22 05:14:23;;;;;;;4.15;3.60;;;27.40;45.70;;;;;;5053853;28;46685;-91
2022/06/22 05:16:52;;;;;;;3.88;3.25;;;27.40;45.90;;;;;;5052995;28;45336;-93
2022/06/22 05:19:20;;;;;;;4.03;3.05;;;27.40;45.80;;;;;;5055198;28;45219;-91
2022/06/22 05:21:47;;;;;;;4.22;3.08;;;27.40;46.10;;;;;;5054374;28;45497;-92
2022/06/22 05:24:19;;;;;;;4.28;3.35;;;27.40;46.00;;;;;;5055144;28;45719;-91
2022/06/22 05:26:46;;;;;;;3.35;3.08;;;27.40;46.40;;;;;;5057852;28;45155;-91
2022/06/22 05:29:17;;;;;;;3.83;3.15;;;27.40;46.60;;;;;;5055819;28;44838;-92
2022/06/22 05:31:47;;;;;;;6.18;3.38;;;27.40;46.40;;;;;;5055829;28;45200;-92
2022/06/22 05:34:16;;;;;;;3.60;3.30;;;27.40;46.50;;;;;;5054449;28;45871;-91
2022/06/22 05:36:44;;;;;;;4.15;3.17;;;27.40;46.70;;;;;;5057562;28;45174;-93
2022/06/22 05:39:13;;;;;;;4.38;3.22;;;27.40;46.70;;;;;;5056183;28;44687;-91
2022/06/22 05:41:43;;;;;;;3.95;3.50;;;27.40;47.00;;;;;;5056934;28;45261;-92
2022/06/22 05:44:12;;;;;;;3.45;3.17;;;27.40;47.00;;;;;;5058568;28;45958;-91
2022/06/22 05:46:42;;;;;;;4.55;3.28;;;27.40;47.20;;;;;;5058942;28;45371;-90
2022/06/22 05:49:11;;;;;;;3.70;3.35;;;27.40;47.50;;;;;;5060737;28;44668;-90
2022/06/22 05:51:39;;;;;;;4.45;3.47;;;27.40;47.50;;;;;;5059981;28;45222;-91
2022/06/22 05:54:10;;;;;;;4.55;3.10;;;27.40;47.60;;;;;;5075442;28;45308;-91
2022/06/22 05:56:41;;;;;;;4.72;3.45;;;27.40;47.60;;;;;;5060560;28;44773;-93
2022/06/22 05:59:10;;;;;;;4.03;3.60;;;27.40;47.60;;;;;;5041547;28;45279;-91
2022/06/22 06:01:46;;;;;;;4.80;3.50;;;27.40;47.50;;;;;;5058306;28;45416;-92
2022/06/22 06:04:20;;;;;;;3.85;3.45;;;27.30;47.70;;;;;;5056793;28;45332;-91
2022/06/22 06:06:47;;;;;;;5.60;3.10;;;27.40;47.50;;;;;;5059097;28;45242;-90
2022/06/22 06:09:21;;;;;;;3.95;3.47;;;27.30;47.60;;;;;;5059156;28;45256;-91
2022/06/22 06:11:50;;;;;;;3.97;3.20;;;27.30;47.70;;;;;;5056132;28;45171;-91
2022/06/22 06:14:22;;;;;;;5.10;3.25;;;27.30;47.70;;;;;;5052558;28;45672;-91
2022/06/22 06:16:53;;;;;;;4.38;3.45;;;27.30;47.70;;;;;;5053662;28;45231;-91
2022/06/22 06:19:21;;;;;;;6.47;3.58;;;27.30;47.50;;;;;;5057021;28;45213;-92
2022/06/22 06:21:49;;;;;;;4.43;3.40;;;27.30;47.50;;;;;;5054339;28;44919;-90
2022/06/22 06:24:17;;;;;;;5.53;3.35;;;27.30;47.40;;;;;;5055669;28;46847;-89
2022/06/22 06:29:34;;;;;;;3.55;3.22;;;27.30;47.40;;;;;;5057430;28;44624;-89
2022/06/22 06:32:10;;;;;;;3.80;3.45;;;27.30;47.30;;;;;;5057128;28;45083;-89
2022/06/22 06:34:40;;;;;;;5.38;3.17;;;27.30;47.30;;;;;;5053899;28;45442;-91
2022/06/22 06:37:11;;;;;;;3.92;3.47;;;27.30;47.10;;;;;;5039470;28;44789;-91
2022/06/22 06:39:51;;;;;;;3.63;3.30;;;27.30;47.00;;;;;;5018888;28;45277;-91
2022/06/22 06:42:24;;;;;;;3.80;3.25;;;27.30;47.00;;;;;;5039910;28;45211;-90
2022/06/22 06:44:51;;;;;;;3.92;3.42;;;27.30;47.10;;;;;;5037471;28;45365;-91
2022/06/22 06:47:22;;;;;;;3.85;3.45;;;27.30;47.00;;;;;;5062439;28;45284;-90
2022/06/22 06:49:51;;;;;;;5.32;3.60;;;27.30;47.00;;;;;;5038585;28;45341;-92
2022/06/22 06:52:23;;;;;;;3.90;3.50;;;27.30;47.00;;;;;;5070986;28;45295;-93
2022/06/22 06:54:52;;;;;;;5.85;3.65;;;27.30;46.90;;;;;;5059032;28;45582;-93
2022/06/22 06:57:22;;;;;;;3.47;3.05;;;27.30;47.10;;;;;;5062462;28;45356;-91
2022/06/22 06:59:51;;;;;;;4.13;3.72;;;27.30;46.80;;;;;;5050112;28;44693;-91
2022/06/22 07:02:21;;;;;;;5.13;3.60;;;27.30;46.90;;;;;;5052934;28;45400;-91
2022/06/22 07:04:48;;;;;;;11.13;4.40;;;27.30;49.40;;;;;;5051788;28;45674;-91
2022/06/22 07:07:30;;;;;;;5.85;3.72;;;27.30;52.00;;;;;;5054029;28;45203;-91
2022/06/22 07:09:59;;;;;;;8.95;3.50;;;27.20;53.70;;;;;;5058254;28;44608;-93
2022/06/22 07:12:29;;;;;;;5.32;3.33;;;27.20;54.00;;;;;;5056054;28;44625;-91
2022/06/22 07:14:58;;;;;;;7.25;3.90;;;27.20;54.50;;;;;;5061188;28;46858;-92
2022/06/22 07:17:27;;;;;;;4.95;3.65;;;27.20;54.70;;;;;;5055858;28;44744;-92
2022/06/22 07:19:56;;;;;;;4.43;4.03;;;27.10;55.00;;;;;;5058355;28;44707;-92
2022/06/22 07:22:25;;;;;;;7.53;4.15;;;27.10;55.20;;;;;;5060724;28;45186;-92
2022/06/22 07:24:54;;;;;;;8.05;3.75;;;27.10;55.40;;;;;;5058160;28;45176;-92
2022/06/22 07:27:24;;;;;;;8.70;4.15;;;27.10;55.50;;;;;;5058423;28;45262;-91
2022/06/22 07:29:53;;;;;;;5.57;3.75;;;27.10;55.60;;;;;;5061489;28;44751;-91
2022/06/22 07:32:33;;;;;;;6.82;3.85;;;27.10;55.70;;;;;;5058289;28;44896;-92
2022/06/22 07:35:02;;;;;;;9.13;3.90;;;27.10;55.80;;;;;;5054940;28;45105;-90
2022/06/22 07:37:31;;;;;;;7.10;3.83;;;27.10;56.10;;;;;;5056474;28;46009;-92
2022/06/22 07:40:00;;;;;;;6.45;3.60;;;27.10;56.20;;;;;;5053119;28;45174;-91
2022/06/22 07:42:28;;;;;;;6.53;2.33;;;27.10;55.60;;;;;;5055694;28;45383;-91
2022/06/22 07:44:55;;;;;;;6.05;2.80;;;27.10;55.80;;;;;;5056490;28;45451;-90
2022/06/22 07:47:27;;;;;;;6.22;2.58;;;27.10;55.60;;;;;;5060455;28;45297;-91
2022/06/22 07:49:57;;;;;;;6.82;2.38;;;27.00;55.80;;;;;;5045658;28;45376;-92
2022/06/22 07:52:25;;;;;;;7.28;2.63;;;27.00;55.80;;;;;;5059677;28;45170;-92
2022/06/22 07:54:54;;;;;;;6.68;2.70;;;27.10;55.50;;;;;;5054355;28;45501;-92
2022/06/22 07:57:22;;;;;;;8.65;2.97;;;27.00;55.60;;;;;;5054757;28;45431;-92
2022/06/22 07:59:51;;;;;;;4.93;2.95;;;27.00;55.80;;;;;;5058759;28;45174;-91
2022/06/22 08:02:19;;;;;;;9.23;3.58;;;27.00;56.30;;;;;;5050117;28;45389;-90
2022/06/22 08:04:50;;;;;;;5.85;3.20;;;27.00;56.90;;;;;;5026644;28;45428;-86
2022/06/22 08:07:20;;;;;;;10.30;3.17;;;27.00;56.50;;;;;;5030406;28;45251;-91
2022/06/22 08:09:57;;;;;;;6.03;3.30;;;27.10;56.80;;;;;;5030320;28;45251;-93
2022/06/22 08:12:25;;;;;;;8.30;3.13;;;27.10;57.00;;;;;;5034667;28;45168;-91
2022/06/22 08:14:53;;;;;;;10.95;3.80;;;27.10;57.00;;;;;;5034780;28;46925;-90
2022/06/22 08:17:39;;;;;;;10.20;3.30;;;27.10;56.70;;;;;;5033936;28;45330;-91
2022/06/22 08:20:06;;;;;;;13.25;3.38;;;27.10;56.20;;;;;;5049459;28;45304;-86
2022/06/22 08:22:35;;;;;;;7.13;3.38;;;27.10;56.40;;;;;;5050711;28;45240;-89
2022/06/22 08:25:02;;;;;;;7.25;3.45;;;27.10;56.80;;;;;;5052238;28;45448;-89
2022/06/22 08:27:31;;;;;;;5.55;3.17;;;27.20;58.20;;;;;;5054904;28;45235;-91
2022/06/22 08:29:58;;;;;;;6.65;2.95;;;27.20;57.30;;;;;;5062009;28;44694;-90
2022/06/22 08:32:27;;;;;;;7.57;3.05;;;27.10;56.90;;;;;;5056499;28;45511;-90
2022/06/22 08:34:54;;;;;;;12.88;3.30;;;27.10;57.50;;;;;;5046238;28;46578;-92
2022/06/22 08:37:25;;;;;;;8.23;2.83;;;27.20;56.60;;;;;;5048040;28;44718;-92
2022/06/22 08:39:56;;;;;;;7.35;2.83;;;27.20;56.20;;;;;;5032606;28;45322;-90
2022/06/22 08:42:29;;;;;;;5.40;3.15;;;27.20;55.90;;;;;;5049871;28;45397;-90
2022/06/22 08:45:08;;;;;;;6.90;2.90;;;27.30;55.70;;;;;;5047632;28;45641;-90
2022/06/22 08:47:52;;;;;;;7.68;2.83;;;27.30;55.60;;;;;;5052114;28;45268;-91
2022/06/22 08:50:37;;;;;;;8.57;2.70;;;27.30;55.90;;;;;;5050697;28;45277;-91
2022/06/22 08:53:15;;;;;;;8.15;2.85;;;27.30;55.80;;;;;;5055675;28;44799;-91
2022/06/22 08:55:55;;;;;;;6.25;2.70;;;27.20;55.40;;;;;;5046986;28;46847;-91
2022/06/22 08:58:48;;;;;;;8.27;3.33;;;27.30;55.40;;;;;;5050848;28;45325;-91
2022/06/22 09:01:18;;;;;;;9.95;2.70;;;27.30;55.60;;;;;;5051333;28;45513;-89
2022/06/22 09:04:01;;;;;;;13.20;3.05;;;27.30;55.60;;;;;;5049041;28;45344;-91
2022/06/22 09:06:43;;;;;;;9.65;2.92;;;27.30;55.90;;;;;;5056715;28;45534;-90
2022/06/22 09:09:34;;;;;;;10.55;2.88;;;27.30;55.70;;;;;;5057872;28;45309;-91
2022/06/22 09:12:16;;;;;;;9.15;3.22;;;27.30;56.00;;;;;;5062832;28;44641;-91
2022/06/22 09:14:57;;;;;;;5.10;3.05;;;27.30;56.20;;;;;;5064965;28;45185;-92
2022/06/22 09:17:39;;;;;;;10.55;3.17;;;27.30;56.60;;;;;;5039966;28;45525;-90
2022/06/22 09:20:40;;;;;;;6.35;2.50;;;27.30;56.60;;;;;;5068330;28;44632;-92
2022/06/22 09:23:20;;;;;;;7.60;2.90;;;27.30;56.30;;;;;;5062573;28;44932;-93
2022/06/22 09:25:49;;;;;;;8.88;3.10;;;27.30;56.30;;;;;;5025772;28;45288;-93
2022/06/22 09:28:26;;;;;;;7.97;2.70;;;27.40;56.40;;;;;;5063480;28;45287;-94
2022/06/22 09:31:18;;;;;;;12.00;3.63;;;27.40;56.80;;;;;;5056693;28;45211;-93
2022/06/22 09:33:54;;;;;;;8.73;2.80;;;27.40;56.60;;;;;;5054424;28;45379;-92
2022/06/22 09:36:50;;;;;;;9.88;3.40;;;27.40;56.30;;;;;;5059429;28;44773;-92
2022/06/22 09:39:36;;;;;;;7.28;2.70;;;27.30;56.20;;;;;;5066265;28;45331;-93
2022/06/22 09:42:24;;;;;;;10.60;2.67;;;27.30;56.60;;;;;;5061489;28;45281;-92
2022/06/22 09:45:14;;;;;;;8.68;2.85;;;27.40;56.40;;;;;;5049776;28;45139;-91
2022/06/22 09:48:06;;;;;;;7.97;2.78;;;27.40;56.30;;;;;;5053024;28;45284;-92
2022/06/22 09:50:49;;;;;;;5.53;2.20;;;27.40;55.80;;;;;;5056908;28;45834;-94
2022/06/22 09:53:24;;;;;;;10.95;2.55;;;27.40;56.30;;;;;;5057439;28;45294;-93
2022/06/22 09:56:22;;;;;;;6.28;2.25;;;27.40;56.80;;;;;;5053526;28;44673;-92
2022/06/22 09:59:30;;;;;;;10.68;2.75;;;27.40;56.70;;;;;;5051762;28;45511;-91
2022/06/22 10:02:15;;;;;;;10.00;2.60;;;27.40;56.50;;;;;;5028996;28;47312;-91
2022/06/22 10:05:05;;;;;;;8.00;2.92;;;27.40;56.40;;;;;;5035054;28;45401;-94
2022/06/22 10:07:39;;;;;;;7.85;2.85;;;27.40;56.70;;;;;;5037288;28;45240;-92
2022/06/22 10:10:15;;;;;;;7.30;2.97;;;27.40;56.80;;;;;;5034369;28;44852;-93
2022/06/22 10:13:03;;;;;;;10.23;3.72;;;27.40;56.70;;;;;;5030129;28;45317;-90
2022/06/22 10:15:40;;;;;;;7.43;3.63;;;27.40;56.90;;;;;;5029810;28;45283;-92
2022/06/22 10:18:17;;;;;;;7.00;3.10;;;27.40;57.10;;;;;;5023167;28;44682;-92
2022/06/22 10:20:50;;;;;;;10.27;3.30;;;27.40;56.60;;;;;;5014119;28;45205;-91
2022/06/22 10:23:39;;;;;;;5.72;3.00;;;27.40;57.00;;;;;;5019144;28;45325;-92
2022/06/22 10:26:19;;;;;;;9.20;3.20;;;27.40;57.40;;;;;;5020543;28;45195;-91
2022/06/22 10:29:30;;;;;;;8.40;2.92;;;27.40;58.00;;;;;;5023969;28;44721;-92
2022/06/22 10:32:07;;;;;;;9.35;2.97;;;27.40;56.90;;;;;;5004707;28;45172;-91
2022/06/22 10:34:47;;;;;;;8.73;3.58;;;27.30;56.80;;;;;;5019557;28;45666;-92
2022/06/22 10:37:43;;;;;;;9.40;3.75;;;27.30;58.70;;;;;;5020662;28;45244;-90
2022/06/22 10:46:16;;;;;;;12.50;4.47;;;27.20;61.10;;;;;;5037479;28;45044;-92
2022/06/22 10:49:12;;;;;;;14.82;3.90;;;27.20;61.40;;;;;;5034599;28;45273;-92
2022/06/22 10:52:02;;;;;;;12.85;3.85;;;27.20;61.70;;;;;;5034050;28;45283;-92
2022/06/22 10:54:56;;;;;;;9.38;3.60;;;27.10;61.50;;;;;;5033243;28;44907;-92
2022/06/22 10:57:45;;;;;;;10.80;4.13;;;27.10;61.80;;;;;;5028904;28;45421;-93
2022/06/22 11:00:16;;;;;;;9.30;3.97;;;27.10;63.00;;;;;;5040867;28;45214;-94
2022/06/22 11:02:58;;;;;;;7.85;3.70;;;27.10;62.30;;;;;;5051347;28;45247;-92
2022/06/22 11:05:44;;;;;;;11.50;3.90;;;27.10;62.10;;;;;;5049504;28;45242;-92
2022/06/22 11:08:35;;;;;;;9.63;4.13;;;27.10;62.30;;;;;;5050237;28;45812;-94
2022/06/22 11:11:10;;;;;;;7.07;3.88;;;27.10;62.40;;;;;;5047979;28;45324;-94
2022/06/22 11:13:52;;;;;;;8.75;4.28;;;27.10;61.90;;;;;;5045688;28;45282;-94
2022/06/22 11:16:32;;;;;;;11.85;4.35;;;27.00;62.20;;;;;;5050287;28;45416;-94
2022/06/22 11:19:16;;;;;;;8.25;4.05;;;27.00;62.20;;;;;;5031367;28;45584;-91
2022/06/22 11:21:50;;;;;;;11.45;4.93;;;27.00;62.40;;;;;;5047735;28;45887;-92
2022/06/22 11:24:57;;;;;;;9.85;4.68;;;27.10;62.20;;;;;;5049928;28;45358;-95
2022/06/22 11:33:29;;;;;;;9.50;4.53;;;27.10;61.50;;;;;;5049509;28;45248;-93
2022/06/22 11:36:02;;;;;;;8.93;4.38;;;27.10;61.10;;;;;;5033037;28;45290;-94
2022/06/22 11:39:01;;;;;;;8.18;4.32;;;27.10;61.40;;;;;;5029096;28;45274;-94
2022/06/22 11:41:51;;;;;;;10.15;4.50;;;27.10;61.80;;;;;;5027368;28;46664;-94
2022/06/22 11:44:31;;;;;;;6.53;4.22;;;27.10;61.30;;;;;;5025917;28;44755;-91
2022/06/22 11:47:01;;;;;;;6.65;4.30;;;27.10;60.90;;;;;;5030837;28;45298;-94
2022/06/22 11:49:55;;;;;;;9.48;3.97;;;27.20;61.10;;;;;;5028885;28;45373;-93
2022/06/22 11:52:33;;;;;;;9.60;4.25;;;27.20;60.00;;;;;;5029923;28;45508;-91
2022/06/22 11:55:18;;;;;;;7.40;3.72;;;27.20;59.80;;;;;;5030955;28;44712;-94
2022/06/22 11:58:07;;;;;;;7.70;4.30;;;27.20;60.10;;;;;;5050686;28;44738;-91
2022/06/22 12:00:39;;;;;;;8.40;3.42;;;27.20;59.90;;;;;;5050310;28;45247;-94
2022/06/22 12:03:37;;;;;;;7.45;3.58;;;27.20;58.90;;;;;;5050723;28;47286;-94
2022/06/22 12:06:18;;;;;;;9.02;3.17;;;27.20;58.90;;;;;;5028637;28;45371;-92
2022/06/22 12:09:07;;;;;;;10.80;3.67;;;27.30;58.50;;;;;;5048577;28;45340;-93
2022/06/22 12:11:40;;;;;;;11.63;3.55;;;27.30;58.40;;;;;;5046100;28;44924;-92
2022/06/22 12:17:11;;;;;;;3.95;2.47;;;27.30;55.80;;;;;;5047079;28;45318;-92
2022/06/22 12:19:42;;;;;;;6.95;2.42;;;27.30;55.70;;;;;;5050759;28;45187;-92
2022/06/22 12:22:19;;;;;;;9.35;2.50;;;27.30;54.60;;;;;;5049901;28;45535;-92
2022/06/22 12:25:03;;;;;;;5.28;2.47;;;27.30;54.60;;;;;;5049947;28;45514;-91
2022/06/22 12:27:31;;;;;;;7.35;3.05;;;27.30;54.80;;;;;;5034334;28;45356;-92
2022/06/22 12:30:21;;;;;;;11.38;3.20;;;27.30;54.80;;;;;;5049827;28;44712;-92
2022/06/22 12:32:51;;;;;;;5.93;2.63;;;27.20;54.00;;;;;;5050952;28;44838;-92
2022/06/22 12:35:23;;;;;;;7.43;2.72;;;27.20;52.70;;;;;;5038842;28;45661;-94
2022/06/22 12:37:52;;;;;;;8.30;2.58;;;27.20;53.20;;;;;;5027808;28;44867;-92
2022/06/22 12:40:21;;;;;;;8.25;2.20;;;27.20;53.10;;;;;;5031680;28;45305;-92
2022/06/22 12:43:10;;;;;;;9.20;2.40;;;27.20;52.50;;;;;;5030594;28;44768;-92
2022/06/22 12:45:50;;;;;;;6.30;2.00;;;27.10;51.80;;;;;;5017357;28;45731;-91
2022/06/22 12:48:51;;;;;;;5.70;1.75;;;27.10;50.50;;;;;;5050298;28;45183;-90
2022/06/22 12:51:23;;;;;;;6.70;2.22;;;27.10;50.50;;;;;;5050815;28;45288;-92
2022/06/22 12:53:52;;;;;;;5.28;1.85;;;27.10;50.20;;;;;;5050952;28;45242;-92
2022/06/22 12:56:21;;;;;;;9.68;2.17;;;27.00;50.50;;;;;;5049673;28;45489;-91
2022/06/22 12:58:50;;;;;;;6.15;2.45;;;27.10;51.30;;;;;;5047431;28;45111;-93
2022/06/22 13:01:19;;;;;;;9.50;2.28;;;27.10;51.20;;;;;;5049727;28;45317;-92
2022/06/22 13:03:49;;;;;;;6.63;2.30;;;27.10;51.60;;;;;;5050486;28;45169;-91
2022/06/22 13:06:16;;;;;;;5.97;1.80;;;27.10;51.40;;;;;;5049641;28;45449;-92
2022/06/22 13:08:42;;;;;;;6.30;2.33;;;27.10;50.90;;;;;;5049309;28;45325;-92
2022/06/22 13:11:15;;;;;;;6.07;1.73;;;27.10;50.30;;;;;;5049893;28;44689;-91
2022/06/22 13:13:47;;;;;;;2.78;1.50;;;27.10;50.20;;;;;;5050952;28;45314;-92
2022/06/22 13:16:15;;;;;;;7.38;1.80;;;27.20;50.70;;;;;;5050989;28;47247;-93
2022/06/22 13:18:45;;;;;;;4.38;1.70;;;27.20;50.40;;;;;;5035423;28;45397;-92
2022/06/22 13:21:13;;;;;;;5.72;1.73;;;27.20;50.40;;;;;;5029576;28;45172;-92
2022/06/22 13:23:48;;;;;;;5.40;1.88;;;27.30;50.30;;;;;;5029487;28;45314;-92
2022/06/22 13:26:27;;;;;;;5.72;1.40;;;27.30;50.30;;;;;;5026642;28;45377;-92
2022/06/22 13:28:59;;;;;;;4.00;1.55;;;27.30;49.70;;;;;;5029949;28;45293;-92
2022/06/22 13:31:28;;;;;;;5.10;1.65;;;27.30;49.60;;;;;;5029579;28;44729;-92
2022/06/22 13:33:58;;;;;;;7.93;1.85;;;27.40;50.30;;;;;;5029524;28;45490;-92
2022/06/22 13:36:29;;;;;;;6.07;1.60;;;27.40;50.40;;;;;;5046077;28;45845;-92
2022/06/22 13:39:00;;;;;;;7.25;2.70;;;27.40;50.60;;;;;;5048931;28;45190;-92
2022/06/22 13:41:40;;;;;;;3.25;1.60;;;27.40;51.00;;;;;;5049079;28;44763;-92
2022/06/22 13:44:27;;;;;;;3.78;1.60;;;27.40;50.90;;;;;;5049624;28;45190;-93
2022/06/22 13:47:19;;;;;;;5.15;1.52;;;27.40;50.40;;;;;;5049217;28;46369;-92
2022/06/22 13:49:59;;;;;;;3.63;1.67;;;27.40;50.30;;;;;;5051014;28;44824;-92
2022/06/22 13:52:30;;;;;;;5.95;1.67;;;27.40;50.30;;;;;;5055590;28;45150;-93
2022/06/22 13:55:15;;;;;;;5.60;1.67;;;27.40;50.20;;;;;;5051556;28;45566;-92
2022/06/22 13:57:44;;;;;;;5.47;2.05;;;27.40;50.20;;;;;;5050645;28;45514;-91
2022/06/22 14:00:13;;;;;;;5.18;1.85;;;27.40;50.20;;;;;;5051450;28;45300;-91
2022/06/22 14:02:57;;;;;;;4.78;1.70;;;27.40;50.00;;;;;;5049121;28;45395;-92